Time,TemperatureF,DewpointF,PressureIn,WindDirection,WindDirectionDegrees,WindSpeedMPH,WindSpeedGustMPH,Humidity,HourlyPrecipIn,Conditions,Clouds,dailyrainin,SoftwareType,DateUTC
2013-03-16 00:00:00,39.9,33.6,29.65,North,0,3.8,3.8,78,0.00,,---,0.00,VWS V14.01,2013-03-16 05:00:00,
2013-03-16 00:05:00,40.1,33.8,29.65,NNW,338,2.9,2.9,78,0.00,,---,0.00,VWS V14.01,2013-03-16 05:05:00,
2013-03-16 00:10:00,40.1,33.8,29.65,ESE,112,3.6,3.6,78,0.00,,---,0.00,VWS V14.01,2013-03-16 05:10:00,
2013-03-16 00:15:00,40.1,33.8,29.65,WSW,248,3.4,3.4,78,0.00,,---,0.00,VWS V14.01,2013-03-16 05:15:00,
2013-03-16 00:20:00,39.9,33.6,29.65,WSW,248,4.9,4.9,78,0.00,,---,0.00,VWS V14.01,2013-03-16 05:20:00,
2013-03-16 00:25:00,39.9,34.0,29.65,South,180,2.7,3.1,79,0.00,,---,0.00,VWS V14.01,2013-03-16 05:25:00,
2013-03-16 00:30:00,39.9,34.0,29.65,NNW,338,9.4,9.4,79,0.00,,---,0.00,VWS V14.01,2013-03-16 05:30:00,
2013-03-16 00:35:00,39.9,34.0,29.65,ENE,68,5.6,6.0,79,0.00,,---,0.00,VWS V14.01,2013-03-16 05:35:00,
2013-03-16 00:40:00,39.9,34.0,29.65,North,0,4.0,4.0,79,0.00,,---,0.00,VWS V14.01,2013-03-16 05:40:00,
2013-03-16 00:45:00,39.9,34.0,29.65,North,0,6.5,6.5,79,0.00,,---,0.00,VWS V14.01,2013-03-16 05:45:00,
2013-03-16 00:50:00,39.9,34.3,29.65,NNW,338,4.9,4.9,80,0.00,,---,0.00,VWS V14.01,2013-03-16 05:50:00,
2013-03-16 00:55:00,39.9,34.3,29.65,NW,315,2.7,2.9,80,0.00,,---,0.00,VWS V14.01,2013-03-16 05:55:00,
2013-03-16 01:00:00,39.9,34.3,29.65,NNE,22,2.9,6.0,80,0.00,,---,0.00,VWS V14.01,2013-03-16 06:00:00,
2013-03-16 01:05:00,39.9,34.3,29.65,ESE,112,3.8,3.8,80,0.00,,---,0.00,VWS V14.01,2013-03-16 06:05:00,
2013-03-16 01:10:00,39.7,34.1,29.65,NNW,338,3.1,3.1,80,0.00,,---,0.00,VWS V14.01,2013-03-16 06:10:00,
2013-03-16 01:15:00,39.7,34.1,29.65,East,90,3.8,3.8,80,0.00,,---,0.00,VWS V14.01,2013-03-16 06:15:00,
2013-03-16 01:20:00,39.7,34.1,29.65,NNE,22,3.1,3.1,80,0.00,,---,0.00,VWS V14.01,2013-03-16 06:20:00,
2013-03-16 01:25:00,39.7,34.1,29.65,NW,315,3.1,3.1,80,0.00,,---,0.00,VWS V14.01,2013-03-16 06:25:00,
2013-03-16 01:31:00,39.7,34.1,29.68,East,90,3.6,3.6,80,0.00,,---,0.00,VWS V14.01,2013-03-16 06:31:00,
2013-03-16 01:36:00,39.7,34.1,29.68,WSW,248,4.9,4.9,80,0.00,,---,0.00,VWS V14.01,2013-03-16 06:36:00,
2013-03-16 01:41:00,39.7,34.4,29.68,ESE,112,4.3,4.3,81,0.00,,---,0.00,VWS V14.01,2013-03-16 06:41:00,
2013-03-16 01:46:00,39.7,34.4,29.68,NE,45,7.2,7.2,81,0.00,,---,0.00,VWS V14.01,2013-03-16 06:46:00,
2013-03-16 01:51:00,39.7,34.4,29.68,NNW,338,3.4,3.4,81,0.00,,---,0.00,VWS V14.01,2013-03-16 06:51:00,
2013-03-16 01:56:00,39.6,34.2,29.68,WNW,292,2.7,2.9,81,0.00,,---,0.00,VWS V14.01,2013-03-16 06:56:00,
2013-03-16 02:01:00,39.6,34.2,29.68,SSE,158,2.9,2.9,81,0.00,,---,0.00,VWS V14.01,2013-03-16 07:01:00,
2013-03-16 02:06:00,39.6,34.2,29.68,NNW,338,4.3,4.3,81,0.00,,---,0.00,VWS V14.01,2013-03-16 07:06:00,
2013-03-16 02:11:00,39.2,33.9,29.68,NNW,338,6.3,6.3,81,0.00,,---,0.00,VWS V14.01,2013-03-16 07:11:00,
2013-03-16 02:16:00,38.7,33.3,29.68,NW,315,8.1,8.1,81,0.00,,---,0.00,VWS V14.01,2013-03-16 07:16:00,
2013-03-16 02:21:00,38.3,33.3,29.68,NNE,22,7.4,7.4,82,0.00,,---,0.00,VWS V14.01,2013-03-16 07:21:00,
2013-03-16 02:26:00,38.1,33.1,29.68,WNW,292,4.3,4.3,82,0.00,,---,0.00,VWS V14.01,2013-03-16 07:26:00,
2013-03-16 02:31:00,37.9,33.0,29.71,WNW,292,2.7,8.5,82,0.00,,---,0.00,VWS V14.01,2013-03-16 07:31:00,
2013-03-16 02:36:00,37.6,32.9,29.71,WNW,292,6.0,6.0,83,0.00,,---,0.00,VWS V14.01,2013-03-16 07:36:00,
2013-03-16 02:41:00,37.0,32.4,29.71,WNW,292,3.6,4.7,83,0.00,,---,0.00,VWS V14.01,2013-03-16 07:41:00,
2013-03-16 02:46:00,36.7,32.0,29.71,NNW,338,3.1,3.6,83,0.00,,---,0.00,VWS V14.01,2013-03-16 07:46:00,
2013-03-16 02:51:00,36.3,31.7,29.71,West,270,6.0,8.5,83,0.00,,---,0.00,VWS V14.01,2013-03-16 07:51:00,
2013-03-16 02:56:00,36.1,31.5,29.71,NNW,338,5.4,5.4,83,0.00,,---,0.00,VWS V14.01,2013-03-16 07:56:00,
2013-03-16 03:01:00,36.0,31.3,29.71,North,0,4.0,7.4,83,0.00,,---,0.00,VWS V14.01,2013-03-16 08:01:00,
2013-03-16 03:07:00,35.8,30.8,29.71,WNW,292,9.2,9.2,82,0.00,,---,0.00,VWS V14.01,2013-03-16 08:07:00,
2013-03-16 03:12:00,35.6,30.7,29.71,NNW,338,5.6,6.5,82,0.00,,---,0.00,VWS V14.01,2013-03-16 08:12:00,
2013-03-16 03:17:00,35.6,30.7,29.74,East,90,11.4,11.4,82,0.00,,---,0.00,VWS V14.01,2013-03-16 08:17:00,
2013-03-16 03:22:00,35.4,30.8,29.74,NNW,338,7.6,7.6,83,0.00,,---,0.00,VWS V14.01,2013-03-16 08:22:00,
2013-03-16 03:27:00,35.2,30.3,29.74,WNW,292,2.9,2.9,82,0.00,,---,0.00,VWS V14.01,2013-03-16 08:27:00,
2013-03-16 03:32:00,35.1,30.1,29.74,SSE,158,8.5,8.5,82,0.00,,---,0.00,VWS V14.01,2013-03-16 08:32:00,
2013-03-16 03:37:00,35.1,30.1,29.74,WNW,292,3.1,3.1,82,0.00,,---,0.00,VWS V14.01,2013-03-16 08:37:00,
2013-03-16 03:42:00,35.1,30.1,29.74,WNW,292,2.5,9.6,82,0.00,,---,0.00,VWS V14.01,2013-03-16 08:42:00,
2013-03-16 03:47:00,34.9,30.0,29.74,NW,315,10.5,10.5,82,0.00,,---,0.00,VWS V14.01,2013-03-16 08:47:00,
2013-03-16 03:52:00,34.9,30.0,29.74,SSW,202,3.8,3.8,82,0.00,,---,0.00,VWS V14.01,2013-03-16 08:52:00,
2013-03-16 03:57:00,34.7,29.8,29.74,NNW,338,4.3,4.3,82,0.00,,---,0.00,VWS V14.01,2013-03-16 08:57:00,
2013-03-16 04:02:00,34.5,29.9,29.74,NNW,338,8.1,8.1,83,0.00,,---,0.00,VWS V14.01,2013-03-16 09:02:00,
2013-03-16 04:07:00,34.5,29.9,29.74,NW,315,7.2,7.2,83,0.00,,---,0.00,VWS V14.01,2013-03-16 09:07:00,
2013-03-16 04:12:00,34.5,29.6,29.74,WNW,292,7.2,9.2,82,0.00,,---,0.00,VWS V14.01,2013-03-16 09:12:00,
2013-03-16 04:17:00,34.5,29.6,29.74,WSW,248,7.4,7.4,82,0.00,,---,0.00,VWS V14.01,2013-03-16 09:17:00,
2013-03-16 04:22:00,34.5,29.6,29.74,NNW,338,4.0,4.0,82,0.00,,---,0.00,VWS V14.01,2013-03-16 09:22:00,
2013-03-16 04:27:00,34.3,29.4,29.74,SW,225,7.2,9.6,82,0.00,,---,0.00,VWS V14.01,2013-03-16 09:27:00,
2013-03-16 04:32:00,34.3,29.4,29.74,WNW,292,6.3,7.2,82,0.00,,---,0.00,VWS V14.01,2013-03-16 09:32:00,
2013-03-16 04:37:00,34.3,29.4,29.74,NNW,338,7.8,7.8,82,0.00,,---,0.00,VWS V14.01,2013-03-16 09:37:00,
2013-03-16 04:42:00,34.3,29.1,29.74,WNW,292,3.8,10.3,81,0.00,,---,0.00,VWS V14.01,2013-03-16 09:42:00,
2013-03-16 04:47:00,34.2,29.0,29.76,North,0,9.8,9.8,81,0.00,,---,0.00,VWS V14.01,2013-03-16 09:47:00,
2013-03-16 04:52:00,34.0,28.8,29.76,NNE,22,6.5,7.8,81,0.00,,---,0.00,VWS V14.01,2013-03-16 09:52:00,
2013-03-16 04:57:00,34.0,28.8,29.76,East,90,4.7,5.8,81,0.00,,---,0.00,VWS V14.01,2013-03-16 09:57:00,
2013-03-16 05:02:00,34.0,28.8,29.76,NW,315,3.4,4.0,81,0.00,,---,0.00,VWS V14.01,2013-03-16 10:02:00,
2013-03-16 05:07:00,33.8,28.6,29.76,NNE,22,3.1,7.6,81,0.00,,---,0.00,VWS V14.01,2013-03-16 10:07:00,
2013-03-16 05:12:00,33.8,28.6,29.76,North,0,5.8,6.3,81,0.00,,---,0.00,VWS V14.01,2013-03-16 10:12:00,
2013-03-16 05:17:00,33.8,28.3,29.76,NNE,22,3.6,3.6,80,0.00,,---,0.00,VWS V14.01,2013-03-16 10:17:00,
2013-03-16 05:22:00,33.8,28.3,29.76,North,0,3.6,3.6,80,0.00,,---,0.00,VWS V14.01,2013-03-16 10:22:00,
2013-03-16 05:27:00,33.8,28.3,29.76,NNE,22,10.3,10.3,80,0.00,,---,0.00,VWS V14.01,2013-03-16 10:27:00,
2013-03-16 05:32:00,33.8,28.3,29.76,ENE,68,5.6,5.6,80,0.00,,---,0.00,VWS V14.01,2013-03-16 10:32:00,
2013-03-16 05:37:00,33.8,28.3,29.76,NW,315,4.0,7.8,80,0.00,,---,0.00,VWS V14.01,2013-03-16 10:37:00,
2013-03-16 05:42:00,33.8,28.3,29.76,NE,45,8.5,8.5,80,0.00,,---,0.00,VWS V14.01,2013-03-16 10:42:00,
2013-03-16 05:47:00,33.8,28.3,29.76,ENE,68,3.8,5.8,80,0.00,,---,0.00,VWS V14.01,2013-03-16 10:47:00,
2013-03-16 05:52:00,33.8,28.0,29.76,NNE,22,6.3,6.3,79,0.00,,---,0.00,VWS V14.01,2013-03-16 10:52:00,
2013-03-16 05:57:00,33.8,28.0,29.76,NNW,338,8.5,8.5,79,0.00,,---,0.00,VWS V14.01,2013-03-16 10:57:00,
2013-03-16 06:02:00,33.8,28.0,29.79,WNW,292,4.3,4.3,79,0.00,,---,0.00,VWS V14.01,2013-03-16 11:02:00,
2013-03-16 06:07:00,33.8,28.0,29.79,WNW,292,6.3,6.3,79,0.00,,---,0.00,VWS V14.01,2013-03-16 11:07:00,
2013-03-16 06:12:00,33.8,28.0,29.79,West,270,4.0,4.0,79,0.00,,---,0.00,VWS V14.01,2013-03-16 11:12:00,
2013-03-16 06:17:00,33.6,27.8,29.79,NE,45,3.6,3.6,79,0.00,,---,0.00,VWS V14.01,2013-03-16 11:17:00,
2013-03-16 06:22:00,33.6,27.8,29.79,WNW,292,2.7,2.7,79,0.00,,---,0.00,VWS V14.01,2013-03-16 11:22:00,
2013-03-16 06:27:00,33.6,27.8,29.79,NE,45,3.4,5.4,79,0.00,,---,0.00,VWS V14.01,2013-03-16 11:27:00,
2013-03-16 06:32:00,33.6,27.8,29.82,West,270,6.5,6.5,79,0.00,,---,0.00,VWS V14.01,2013-03-16 11:32:00,
2013-03-16 06:37:00,33.3,27.1,29.82,NW,315,4.9,5.4,78,0.00,,---,0.00,VWS V14.01,2013-03-16 11:37:00,
2013-03-16 06:42:00,33.1,27.0,29.82,ENE,68,2.0,2.0,78,0.00,,---,0.00,VWS V14.01,2013-03-16 11:42:00,
2013-03-16 06:47:00,33.1,27.0,29.82,ESE,112,6.3,6.3,78,0.00,,---,0.00,VWS V14.01,2013-03-16 11:47:00,
2013-03-16 06:53:00,32.9,26.8,29.82,NE,45,4.9,4.9,78,0.00,,---,0.00,VWS V14.01,2013-03-16 11:53:00,
2013-03-16 06:58:00,32.7,26.6,29.82,NNE,22,4.0,4.0,78,0.00,,---,0.00,VWS V14.01,2013-03-16 11:58:00,
2013-03-16 07:03:00,32.4,26.0,29.82,NNE,22,5.6,5.6,77,0.00,,---,0.00,VWS V14.01,2013-03-16 12:03:00,
2013-03-16 07:08:00,32.2,25.8,29.82,SSW,202,4.0,6.0,77,0.00,,---,0.00,VWS V14.01,2013-03-16 12:08:00,
2013-03-16 07:13:00,31.8,25.4,29.82,WNW,292,5.4,5.4,77,0.00,,---,0.00,VWS V14.01,2013-03-16 12:13:00,
2013-03-16 07:18:00,31.6,25.3,29.82,ENE,68,2.5,4.3,77,0.00,,---,0.00,VWS V14.01,2013-03-16 12:18:00,
2013-03-16 07:23:00,31.5,25.4,29.82,NNW,338,6.3,6.3,78,0.00,,---,0.00,VWS V14.01,2013-03-16 12:23:00,
2013-03-16 07:28:00,31.3,25.2,29.82,NNE,22,2.2,2.7,78,0.00,,---,0.00,VWS V14.01,2013-03-16 12:28:00,
2013-03-16 07:33:00,31.3,25.2,29.85,NNW,338,7.8,9.8,78,0.00,,---,0.00,VWS V14.01,2013-03-16 12:33:00,
2013-03-16 07:38:00,31.1,25.0,29.85,NNE,22,3.4,3.4,78,0.00,,---,0.00,VWS V14.01,2013-03-16 12:38:00,
2013-03-16 07:43:00,30.9,24.9,29.85,NW,315,7.6,7.6,78,0.00,,---,0.00,VWS V14.01,2013-03-16 12:43:00,
2013-03-16 07:48:00,30.9,24.9,29.85,NW,315,3.1,4.0,78,0.00,,---,0.00,VWS V14.01,2013-03-16 12:48:00,
2013-03-16 07:53:00,30.9,24.9,29.85,NW,315,7.6,7.6,78,0.00,,---,0.00,VWS V14.01,2013-03-16 12:53:00,
2013-03-16 07:58:00,30.7,24.7,29.85,NNW,338,7.6,7.6,78,0.00,,---,0.00,VWS V14.01,2013-03-16 12:58:00,
2013-03-16 08:03:00,30.7,24.7,29.85,NNE,22,6.3,6.3,78,0.00,,---,0.00,VWS V14.01,2013-03-16 13:03:00,
2013-03-16 08:08:00,30.7,24.7,29.85,NE,45,5.8,5.8,78,0.00,,---,0.00,VWS V14.01,2013-03-16 13:08:00,
2013-03-16 08:13:00,30.4,24.4,29.85,North,0,3.6,3.6,78,0.00,,---,0.00,VWS V14.01,2013-03-16 13:13:00,
2013-03-16 08:18:00,30.4,24.4,29.85,WNW,292,4.9,4.9,78,0.00,,---,0.00,VWS V14.01,2013-03-16 13:18:00,
2013-03-16 08:23:00,30.2,24.2,29.85,NW,315,4.3,4.3,78,0.00,,---,0.00,VWS V14.01,2013-03-16 13:23:00,
2013-03-16 08:28:00,30.2,24.2,29.85,ENE,68,6.5,6.5,78,0.00,,---,0.00,VWS V14.01,2013-03-16 13:28:00,
2013-03-16 08:33:00,30.0,24.0,29.85,ENE,68,2.9,2.9,78,0.00,,---,0.00,VWS V14.01,2013-03-16 13:33:00,
2013-03-16 08:38:00,30.0,24.0,29.85,South,180,6.3,6.3,78,0.00,,---,0.00,VWS V14.01,2013-03-16 13:38:00,
2013-03-16 08:43:00,29.8,23.8,29.85,WNW,292,4.3,4.3,78,0.00,,---,0.00,VWS V14.01,2013-03-16 13:43:00,
2013-03-16 08:48:00,29.7,23.6,29.85,NNW,338,3.1,4.9,78,0.00,,---,0.00,VWS V14.01,2013-03-16 13:48:00,
2013-03-16 08:53:00,29.5,23.2,29.85,NNW,338,5.6,6.3,77,0.00,,---,0.00,VWS V14.01,2013-03-16 13:53:00,
2013-03-16 08:58:00,29.3,23.0,29.85,NNW,338,6.3,6.3,77,0.00,,---,0.00,VWS V14.01,2013-03-16 13:58:00,
2013-03-16 09:03:00,29.1,22.8,29.85,NNW,338,3.4,7.8,77,0.00,,---,0.00,VWS V14.01,2013-03-16 14:03:00,
2013-03-16 09:08:00,29.1,22.8,29.85,SSW,202,3.6,3.6,77,0.00,,---,0.00,VWS V14.01,2013-03-16 14:08:00,
2013-03-16 09:13:00,29.3,23.0,29.85,South,180,7.4,7.4,77,0.00,,---,0.00,VWS V14.01,2013-03-16 14:13:00,
2013-03-16 09:18:00,29.3,23.0,29.85,WNW,292,5.8,5.8,77,0.00,,---,0.00,VWS V14.01,2013-03-16 14:18:00,
2013-03-16 09:23:00,29.3,23.0,29.85,WSW,248,4.3,4.3,77,0.00,,---,0.00,VWS V14.01,2013-03-16 14:23:00,
2013-03-16 09:28:00,29.3,23.0,29.85,NW,315,5.4,5.4,77,0.00,,---,0.00,VWS V14.01,2013-03-16 14:28:00,
2013-03-16 09:33:00,29.3,23.0,29.85,WSW,248,11.2,11.2,77,0.00,,---,0.00,VWS V14.01,2013-03-16 14:33:00,
2013-03-16 09:38:00,29.3,23.0,29.85,SE,135,6.0,6.0,77,0.00,,---,0.00,VWS V14.01,2013-03-16 14:38:00,
2013-03-16 09:43:00,29.5,23.2,29.85,WSW,248,2.5,7.4,77,0.00,,---,0.00,VWS V14.01,2013-03-16 14:43:00,
2013-03-16 09:48:00,29.5,23.2,29.88,SSE,158,6.0,6.0,77,0.00,,---,0.00,VWS V14.01,2013-03-16 14:48:00,
2013-03-16 09:53:00,29.5,23.2,29.88,NW,315,5.4,5.4,77,0.00,,---,0.00,VWS V14.01,2013-03-16 14:53:00,
2013-03-16 09:58:00,29.5,23.2,29.88,NNE,22,5.8,5.8,77,0.00,,---,0.00,VWS V14.01,2013-03-16 14:58:00,
2013-03-16 10:03:00,29.5,23.2,29.88,WNW,292,3.1,3.1,77,0.00,,---,0.00,VWS V14.01,2013-03-16 15:03:00,
2013-03-16 10:08:00,29.5,23.2,29.88,NNW,338,5.8,9.8,77,0.00,,---,0.00,VWS V14.01,2013-03-16 15:08:00,
2013-03-16 10:14:00,29.5,23.2,29.88,NE,45,5.4,6.3,77,0.00,,---,0.00,VWS V14.01,2013-03-16 15:14:00,
2013-03-16 10:19:00,29.8,23.5,29.85,NNE,22,8.5,8.5,77,0.00,,---,0.00,VWS V14.01,2013-03-16 15:19:00,
2013-03-16 10:24:00,29.7,23.4,29.85,NNW,338,8.1,8.1,77,0.00,,---,0.00,VWS V14.01,2013-03-16 15:24:00,
2013-03-16 10:29:00,29.8,23.5,29.85,SW,225,11.9,11.9,77,0.00,,---,0.00,VWS V14.01,2013-03-16 15:29:00,
2013-03-16 10:34:00,30.0,23.7,29.85,North,0,3.1,8.7,77,0.00,,---,0.00,VWS V14.01,2013-03-16 15:34:00,
2013-03-16 10:39:00,30.0,23.4,29.85,ENE,68,3.8,3.8,76,0.00,,---,0.00,VWS V14.01,2013-03-16 15:39:00,
2013-03-16 10:44:00,30.0,23.4,29.85,ENE,68,4.0,6.0,76,0.00,,---,0.00,VWS V14.01,2013-03-16 15:44:00,
2013-03-16 10:49:00,30.2,23.6,29.85,WSW,248,6.3,6.3,76,0.00,,---,0.00,VWS V14.01,2013-03-16 15:49:00,
2013-03-16 10:54:00,30.4,23.7,29.85,East,90,4.0,4.0,76,0.00,,---,0.00,VWS V14.01,2013-03-16 15:54:00,
2013-03-16 10:59:00,30.7,23.8,29.85,NE,45,3.6,3.6,75,0.00,,---,0.00,VWS V14.01,2013-03-16 15:59:00,
2013-03-16 11:04:00,30.7,23.8,29.85,WNW,292,8.1,8.1,75,0.00,,---,0.00,VWS V14.01,2013-03-16 16:04:00,
2013-03-16 11:09:00,30.7,23.8,29.85,ENE,68,6.0,6.0,75,0.00,,---,0.00,VWS V14.01,2013-03-16 16:09:00,
2013-03-16 11:14:00,30.9,23.9,29.85,NNW,338,2.7,3.8,75,0.00,,---,0.00,VWS V14.01,2013-03-16 16:14:00,
2013-03-16 11:19:00,31.3,24.0,29.88,NNW,338,3.4,3.4,74,0.00,,---,0.00,VWS V14.01,2013-03-16 16:19:00,
2013-03-16 11:24:00,31.5,24.1,29.88,ESE,112,10.1,10.1,74,0.00,,---,0.00,VWS V14.01,2013-03-16 16:24:00,
2013-03-16 11:29:00,31.6,24.3,29.88,NE,45,2.9,4.3,74,0.00,,---,0.00,VWS V14.01,2013-03-16 16:29:00,
2013-03-16 11:34:00,31.8,24.5,29.88,WNW,292,3.4,3.4,74,0.00,,---,0.00,VWS V14.01,2013-03-16 16:34:00,
2013-03-16 11:39:00,31.8,24.5,29.88,East,90,9.6,9.6,74,0.00,,---,0.00,VWS V14.01,2013-03-16 16:39:00,
2013-03-16 11:44:00,32.0,24.7,29.88,NE,45,8.5,8.5,74,0.00,,---,0.00,VWS V14.01,2013-03-16 16:44:00,
2013-03-16 11:49:00,32.2,24.5,29.88,North,0,3.8,4.0,73,0.00,,---,0.00,VWS V14.01,2013-03-16 16:49:00,
2013-03-16 11:54:00,32.0,24.3,29.88,ESE,112,3.8,3.8,73,0.00,,---,0.00,VWS V14.01,2013-03-16 16:54:00,
2013-03-16 11:59:00,32.0,24.3,29.88,SW,225,8.7,8.7,73,0.00,,---,0.00,VWS V14.01,2013-03-16 16:59:00,
2013-03-16 12:04:00,31.8,23.8,29.91,NNE,22,2.9,2.9,72,0.00,,---,0.00,VWS V14.01,2013-03-16 17:04:00,
2013-03-16 12:09:00,31.8,23.8,29.91,NNW,338,2.0,2.0,72,0.00,,---,0.00,VWS V14.01,2013-03-16 17:09:00,
2013-03-16 12:14:00,31.8,23.8,29.91,North,0,3.4,4.7,72,0.00,,---,0.00,VWS V14.01,2013-03-16 17:14:00,
2013-03-16 12:19:00,32.0,24.0,29.91,NNE,22,3.4,5.6,72,0.00,,---,0.00,VWS V14.01,2013-03-16 17:19:00,
2013-03-16 12:24:00,32.2,24.2,29.91,NNE,22,4.3,4.3,72,0.00,,---,0.00,VWS V14.01,2013-03-16 17:24:00,
2013-03-16 12:29:00,32.7,24.7,29.91,NNW,338,3.8,3.8,72,0.00,,---,0.00,VWS V14.01,2013-03-16 17:29:00,
2013-03-16 12:34:00,32.7,24.7,29.91,SE,135,3.6,5.4,72,0.00,,---,0.00,VWS V14.01,2013-03-16 17:34:00,
2013-03-16 12:39:00,32.7,24.4,29.91,North,0,2.9,3.1,71,0.00,,---,0.00,VWS V14.01,2013-03-16 17:39:00,
2013-03-16 12:44:00,32.7,24.4,29.91,NE,45,4.3,4.3,71,0.00,,---,0.00,VWS V14.01,2013-03-16 17:44:00,
2013-03-16 12:49:00,32.7,24.4,29.88,NE,45,3.8,3.8,71,0.00,,---,0.00,VWS V14.01,2013-03-16 17:49:00,
2013-03-16 12:54:00,32.9,24.5,29.88,ENE,68,4.7,4.7,71,0.00,,---,0.00,VWS V14.01,2013-03-16 17:54:00,
2013-03-16 12:59:00,32.9,24.5,29.88,North,0,2.7,6.3,71,0.00,,---,0.00,VWS V14.01,2013-03-16 17:59:00,
2013-03-16 13:04:00,32.9,24.5,29.88,NNW,338,3.8,3.8,71,0.00,,---,0.00,VWS V14.01,2013-03-16 18:04:00,
2013-03-16 13:09:00,32.9,24.5,29.88,NNE,22,4.9,4.9,71,0.00,,---,0.00,VWS V14.01,2013-03-16 18:09:00,
2013-03-16 13:14:00,32.7,24.4,29.88,North,0,3.6,4.0,71,0.00,,---,0.00,VWS V14.01,2013-03-16 18:14:00,
2013-03-16 13:19:00,32.7,24.4,29.91,WNW,292,2.7,4.7,71,0.00,,---,0.00,VWS V14.01,2013-03-16 18:19:00,
2013-03-16 13:24:00,32.9,24.5,29.91,WNW,292,5.6,5.6,71,0.00,,---,0.00,VWS V14.01,2013-03-16 18:24:00,
2013-03-16 13:29:00,32.9,24.2,29.91,NNW,338,3.1,3.8,70,0.00,,---,0.00,VWS V14.01,2013-03-16 18:29:00,
2013-03-16 13:34:00,32.9,24.2,29.91,ESE,112,3.1,4.3,70,0.00,,---,0.00,VWS V14.01,2013-03-16 18:34:00,
2013-03-16 13:39:00,33.1,24.4,29.91,ENE,68,2.9,3.4,70,0.00,,---,0.00,VWS V14.01,2013-03-16 18:39:00,
2013-03-16 13:44:00,33.1,24.4,29.91,NNW,338,4.0,5.8,70,0.00,,---,0.00,VWS V14.01,2013-03-16 18:44:00,
2013-03-16 13:49:00,33.3,24.2,29.91,NE,45,8.5,8.5,69,0.00,,---,0.00,VWS V14.01,2013-03-16 18:49:00,
2013-03-16 13:54:00,33.3,24.2,29.91,NNE,22,3.1,3.1,69,0.00,,---,0.00,VWS V14.01,2013-03-16 18:54:00,
2013-03-16 13:59:00,33.3,24.2,29.91,NNE,22,2.7,2.7,69,0.00,,---,0.00,VWS V14.01,2013-03-16 18:59:00,
2013-03-16 14:04:00,33.3,24.2,29.91,NNE,22,4.0,4.0,69,0.00,,---,0.00,VWS V14.01,2013-03-16 19:04:00,
2013-03-16 14:09:00,33.3,24.2,29.91,NNW,338,2.2,2.9,69,0.00,,---,0.00,VWS V14.01,2013-03-16 19:09:00,
2013-03-16 14:14:00,33.3,24.2,29.88,NNE,22,3.6,3.6,69,0.00,,---,0.00,VWS V14.01,2013-03-16 19:14:00,
2013-03-16 14:19:00,33.6,24.5,29.88,North,0,2.5,4.3,69,0.00,,---,0.00,VWS V14.01,2013-03-16 19:19:00,
2013-03-16 14:24:00,33.6,24.5,29.88,NW,315,3.8,3.8,69,0.00,,---,0.00,VWS V14.01,2013-03-16 19:24:00,
2013-03-16 14:29:00,33.8,24.7,29.88,NNW,338,2.7,3.8,69,0.00,,---,0.00,VWS V14.01,2013-03-16 19:29:00,
2013-03-16 14:34:00,33.8,24.4,29.88,ENE,68,6.5,6.5,68,0.00,,---,0.00,VWS V14.01,2013-03-16 19:34:00,
2013-03-16 14:39:00,34.0,24.5,29.88,SSE,158,4.3,4.3,68,0.00,,---,0.00,VWS V14.01,2013-03-16 19:39:00,
2013-03-16 14:44:00,33.8,24.4,29.88,NNW,338,2.7,4.0,68,0.00,,---,0.00,VWS V14.01,2013-03-16 19:44:00,
2013-03-16 14:49:00,34.3,24.9,29.88,NE,45,1.3,4.3,68,0.00,,---,0.00,VWS V14.01,2013-03-16 19:49:00,
2013-03-16 14:54:00,34.5,25.1,29.88,ENE,68,2.7,3.6,68,0.00,,---,0.00,VWS V14.01,2013-03-16 19:54:00,
2013-03-16 14:59:00,34.7,24.9,29.88,NNE,22,4.9,5.4,67,0.00,,---,0.00,VWS V14.01,2013-03-16 19:59:00,
2013-03-16 15:04:00,34.7,24.9,29.88,WNW,292,3.6,3.6,67,0.00,,---,0.00,VWS V14.01,2013-03-16 20:04:00,
2013-03-16 15:09:00,34.7,24.9,29.88,South,180,2.9,2.9,67,0.00,,---,0.00,VWS V14.01,2013-03-16 20:09:00,
2013-03-16 15:14:00,34.7,24.5,29.85,WNW,292,2.5,2.7,66,0.00,,---,0.00,VWS V14.01,2013-03-16 20:14:00,
2013-03-16 15:19:00,34.7,24.5,29.85,NNW,338,6.5,6.5,66,0.00,,---,0.00,VWS V14.01,2013-03-16 20:19:00,
2013-03-16 15:24:00,34.7,24.5,29.85,NW,315,3.1,3.1,66,0.00,,---,0.00,VWS V14.01,2013-03-16 20:24:00,
2013-03-16 15:30:00,34.9,24.7,29.85,NNE,22,1.6,1.6,66,0.00,,---,0.00,VWS V14.01,2013-03-16 20:30:00,
2013-03-16 15:35:00,35.1,24.9,29.85,NNW,338,1.6,1.6,66,0.00,,---,0.00,VWS V14.01,2013-03-16 20:35:00,
2013-03-16 15:40:00,34.9,24.7,29.85,NNW,338,4.9,4.9,66,0.00,,---,0.00,VWS V14.01,2013-03-16 20:40:00,
2013-03-16 15:45:00,34.9,24.7,29.85,SW,225,2.7,2.7,66,0.00,,---,0.00,VWS V14.01,2013-03-16 20:45:00,
2013-03-16 15:50:00,34.9,24.7,29.85,WNW,292,3.4,3.6,66,0.00,,---,0.00,VWS V14.01,2013-03-16 20:50:00,
2013-03-16 15:55:00,34.9,24.7,29.85,NNE,22,3.4,3.4,66,0.00,,---,0.00,VWS V14.01,2013-03-16 20:55:00,
2013-03-16 16:00:00,34.7,24.1,29.85,NNE,22,2.7,2.7,65,0.00,,---,0.00,VWS V14.01,2013-03-16 21:00:00,
2013-03-16 16:05:00,34.7,24.5,29.85,NNW,338,5.8,5.8,66,0.00,,---,0.00,VWS V14.01,2013-03-16 21:05:00,
2013-03-16 16:10:00,34.5,24.0,29.85,WNW,292,2.0,2.0,65,0.00,,---,0.00,VWS V14.01,2013-03-16 21:10:00,
2013-03-16 16:15:00,34.3,23.8,29.85,North,0,6.0,6.0,65,0.00,,---,0.00,VWS V14.01,2013-03-16 21:15:00,
2013-03-16 16:20:00,34.3,23.8,29.85,NNW,338,2.5,2.5,65,0.00,,---,0.00,VWS V14.01,2013-03-16 21:20:00,
2013-03-16 16:25:00,34.5,24.0,29.85,NNE,22,4.3,4.3,65,0.00,,---,0.00,VWS V14.01,2013-03-16 21:25:00,
2013-03-16 16:30:00,35.1,24.9,29.85,NNE,22,5.4,5.4,66,0.00,,---,0.00,VWS V14.01,2013-03-16 21:30:00,
2013-03-16 16:35:00,35.2,24.7,29.85,North,0,2.7,2.7,65,0.00,,---,0.00,VWS V14.01,2013-03-16 21:35:00,
2013-03-16 16:40:00,35.1,24.5,29.85,WSW,248,1.3,1.3,65,0.00,,---,0.00,VWS V14.01,2013-03-16 21:40:00,
2013-03-16 16:45:00,35.1,24.5,29.85,South,180,4.0,4.0,65,0.00,,---,0.00,VWS V14.01,2013-03-16 21:45:00,
2013-03-16 16:50:00,35.2,24.7,29.85,NNW,338,1.3,3.4,65,0.00,,---,0.00,VWS V14.01,2013-03-16 21:50:00,
2013-03-16 16:55:00,35.2,24.7,29.85,NNW,338,5.6,5.6,65,0.00,,---,0.00,VWS V14.01,2013-03-16 21:55:00,
2013-03-16 17:00:00,35.4,24.8,29.85,NE,45,2.7,3.1,65,0.00,,---,0.00,VWS V14.01,2013-03-16 22:00:00,
2013-03-16 17:05:00,35.6,24.6,29.85,NNE,22,4.9,4.9,64,0.00,,---,0.00,VWS V14.01,2013-03-16 22:05:00,
2013-03-16 17:10:00,35.8,24.4,29.85,WNW,292,5.6,5.6,63,0.00,,---,0.00,VWS V14.01,2013-03-16 22:10:00,
2013-03-16 17:15:00,35.8,24.4,29.85,NNW,338,3.6,3.6,63,0.00,,---,0.00,VWS V14.01,2013-03-16 22:15:00,
2013-03-16 17:20:00,35.6,24.3,29.85,ENE,68,5.4,6.7,63,0.00,,---,0.00,VWS V14.01,2013-03-16 22:20:00,
2013-03-16 17:25:00,35.4,23.7,29.85,ESE,112,6.3,6.3,62,0.00,,---,0.00,VWS V14.01,2013-03-16 22:25:00,
2013-03-16 17:30:00,35.2,23.5,29.85,WNW,292,4.9,4.9,62,0.00,,---,0.00,VWS V14.01,2013-03-16 22:30:00,
2013-03-16 17:35:00,35.2,23.5,29.85,NNE,22,3.4,3.4,62,0.00,,---,0.00,VWS V14.01,2013-03-16 22:35:00,
2013-03-16 17:40:00,35.4,23.7,29.85,ESE,112,6.3,6.3,62,0.00,,---,0.00,VWS V14.01,2013-03-16 22:40:00,
2013-03-16 17:45:00,35.4,23.7,29.85,ENE,68,2.5,2.7,62,0.00,,---,0.00,VWS V14.01,2013-03-16 22:45:00,
2013-03-16 17:50:00,35.4,23.7,29.85,NNE,22,3.6,3.6,62,0.00,,---,0.00,VWS V14.01,2013-03-16 22:50:00,
2013-03-16 17:55:00,35.4,23.7,29.85,ENE,68,8.5,8.5,62,0.00,,---,0.00,VWS V14.01,2013-03-16 22:55:00,
2013-03-16 18:00:00,35.1,23.4,29.85,North,0,3.6,6.3,62,0.00,,---,0.00,VWS V14.01,2013-03-16 23:00:00,
2013-03-16 18:05:00,35.2,23.5,29.85,NNW,338,6.3,6.3,62,0.00,,---,0.00,VWS V14.01,2013-03-16 23:05:00,
2013-03-16 18:10:00,35.1,23.4,29.85,NNE,22,4.9,4.9,62,0.00,,---,0.00,VWS V14.01,2013-03-16 23:10:00,
2013-03-16 18:15:00,34.9,22.8,29.85,NE,45,4.3,9.8,61,0.00,,---,0.00,VWS V14.01,2013-03-16 23:15:00,
2013-03-16 18:20:00,34.9,22.8,29.85,NNW,338,5.6,5.6,61,0.00,,---,0.00,VWS V14.01,2013-03-16 23:20:00,
2013-03-16 18:25:00,34.7,22.6,29.85,NNE,22,3.6,3.6,61,0.00,,---,0.00,VWS V14.01,2013-03-16 23:25:00,
2013-03-16 18:30:00,34.5,22.5,29.85,ENE,68,5.8,5.8,61,0.00,,---,0.00,VWS V14.01,2013-03-16 23:30:00,
2013-03-16 18:35:00,34.3,22.3,29.85,NNW,338,4.7,4.7,61,0.00,,---,0.00,VWS V14.01,2013-03-16 23:35:00,
2013-03-16 18:40:00,34.2,22.1,29.85,ENE,68,1.3,2.5,61,0.00,,---,0.00,VWS V14.01,2013-03-16 23:40:00,
2013-03-16 18:45:00,34.0,22.0,29.88,NNE,22,3.8,8.7,61,0.00,,---,0.00,VWS V14.01,2013-03-16 23:45:00,
2013-03-16 18:50:00,33.8,21.8,29.88,North,0,3.1,3.1,61,0.00,,---,0.00,VWS V14.01,2013-03-16 23:50:00,
2013-03-16 18:55:00,33.8,22.2,29.88,ENE,68,2.2,2.2,62,0.00,,---,0.00,VWS V14.01,2013-03-16 23:55:00,
2013-03-16 19:00:00,33.6,22.0,29.88,WSW,248,2.5,4.9,62,0.00,,---,0.00,VWS V14.01,2013-03-17 00:00:00,
2013-03-16 19:05:00,33.4,22.2,29.88,NNW,338,3.6,3.6,63,0.00,,---,0.00,VWS V14.01,2013-03-17 00:05:00,
2013-03-16 19:10:00,33.3,22.0,29.88,SSE,158,2.0,7.6,63,0.00,,---,0.00,VWS V14.01,2013-03-17 00:10:00,
2013-03-16 19:15:00,33.3,22.0,29.88,NNW,338,2.7,2.7,63,0.00,,---,0.00,VWS V14.01,2013-03-17 00:15:00,
2013-03-16 19:20:00,33.1,21.9,29.88,ENE,68,3.6,3.6,63,0.00,,---,0.00,VWS V14.01,2013-03-17 00:20:00,
2013-03-16 19:25:00,33.1,21.9,29.88,NE,45,2.9,4.9,63,0.00,,---,0.00,VWS V14.01,2013-03-17 00:25:00,
2013-03-16 19:30:00,32.9,21.7,29.88,NNE,22,1.3,2.0,63,0.00,,---,0.00,VWS V14.01,2013-03-17 00:30:00,
2013-03-16 19:35:00,32.9,22.1,29.88,ENE,68,3.4,3.4,64,0.00,,---,0.00,VWS V14.01,2013-03-17 00:35:00,
2013-03-16 19:40:00,32.9,22.1,29.88,NE,45,3.1,6.0,64,0.00,,---,0.00,VWS V14.01,2013-03-17 00:40:00,
2013-03-16 19:45:00,32.7,21.9,29.88,East,90,5.4,5.4,64,0.00,,---,0.00,VWS V14.01,2013-03-17 00:45:00,
2013-03-16 19:50:00,32.5,21.7,29.88,NE,45,3.8,3.8,64,0.00,,---,0.00,VWS V14.01,2013-03-17 00:50:00,
2013-03-16 19:55:00,32.5,21.7,29.88,NE,45,4.3,4.3,64,0.00,,---,0.00,VWS V14.01,2013-03-17 00:55:00,
2013-03-16 20:00:00,32.5,21.7,29.88,ENE,68,5.6,5.6,64,0.00,,---,0.00,VWS V14.01,2013-03-17 01:00:00,
2013-03-16 20:05:00,32.4,21.6,29.88,ENE,68,4.3,4.3,64,0.00,,---,0.00,VWS V14.01,2013-03-17 01:05:00,
2013-03-16 20:10:00,32.4,21.6,29.88,North,0,2.0,2.0,64,0.00,,---,0.00,VWS V14.01,2013-03-17 01:10:00,
2013-03-16 20:16:00,32.4,21.6,29.91,NE,45,2.5,2.5,64,0.00,,---,0.00,VWS V14.01,2013-03-17 01:16:00,
2013-03-16 20:21:00,32.4,21.6,29.91,NNW,338,2.9,5.8,64,0.00,,---,0.00,VWS V14.01,2013-03-17 01:21:00,
2013-03-16 20:26:00,32.2,21.4,29.91,ENE,68,3.4,3.4,64,0.00,,---,0.00,VWS V14.01,2013-03-17 01:26:00,
2013-03-16 20:31:00,32.2,21.4,29.91,NE,45,4.3,4.3,64,0.00,,---,0.00,VWS V14.01,2013-03-17 01:31:00,
2013-03-16 20:36:00,32.2,21.4,29.91,ENE,68,2.7,4.0,64,0.00,,---,0.00,VWS V14.01,2013-03-17 01:36:00,
2013-03-16 20:41:00,32.2,21.4,29.91,West,270,4.3,4.3,64,0.00,,---,0.00,VWS V14.01,2013-03-17 01:41:00,
2013-03-16 20:46:00,32.2,21.8,29.91,NE,45,4.3,4.3,65,0.00,,---,0.00,VWS V14.01,2013-03-17 01:46:00,
2013-03-16 20:51:00,32.0,21.6,29.91,NNW,338,1.6,1.6,65,0.00,,---,0.00,VWS V14.01,2013-03-17 01:51:00,
2013-03-16 20:56:00,32.0,21.6,29.91,North,0,2.5,4.0,65,0.00,,---,0.00,VWS V14.01,2013-03-17 01:56:00,
2013-03-16 21:01:00,32.0,21.6,29.94,ENE,68,1.6,1.6,65,0.00,,---,0.00,VWS V14.01,2013-03-17 02:01:00,
2013-03-16 21:06:00,32.0,21.6,29.94,SSW,202,1.6,1.6,65,0.00,,---,0.00,VWS V14.01,2013-03-17 02:06:00,
2013-03-16 21:11:00,31.8,21.4,29.94,East,90,2.9,2.9,65,0.00,,---,0.00,VWS V14.01,2013-03-17 02:11:00,
2013-03-16 21:16:00,31.8,21.4,29.94,WNW,292,2.9,2.9,65,0.00,,---,0.00,VWS V14.01,2013-03-17 02:16:00,
2013-03-16 21:21:00,31.6,21.2,29.94,NNW,338,2.9,2.9,65,0.00,,---,0.00,VWS V14.01,2013-03-17 02:21:00,
2013-03-16 21:26:00,31.6,21.2,29.94,WNW,292,2.0,5.6,65,0.00,,---,0.00,VWS V14.01,2013-03-17 02:26:00,
2013-03-16 21:31:00,31.5,21.1,29.94,NNE,22,2.9,2.9,65,0.00,,---,0.00,VWS V14.01,2013-03-17 02:31:00,
2013-03-16 21:36:00,31.5,21.1,29.94,NNE,22,5.4,5.4,65,0.00,,---,0.00,VWS V14.01,2013-03-17 02:36:00,
2013-03-16 21:42:00,31.5,21.1,29.94,WSW,248,2.0,2.0,65,0.00,,---,0.00,VWS V14.01,2013-03-17 02:42:00,
2013-03-16 21:47:00,31.3,20.9,29.94,NE,45,5.4,5.6,65,0.00,,---,0.00,VWS V14.01,2013-03-17 02:47:00,
2013-03-16 21:52:00,31.3,20.9,29.94,NE,45,3.6,6.0,65,0.00,,---,0.00,VWS V14.01,2013-03-17 02:52:00,
2013-03-16 21:57:00,31.1,20.7,29.94,NE,45,3.8,3.8,65,0.00,,---,0.00,VWS V14.01,2013-03-17 02:57:00,
2013-03-16 22:02:00,31.1,20.7,29.97,ENE,68,1.6,2.5,65,0.00,,---,0.00,VWS V14.01,2013-03-17 03:02:00,
2013-03-16 22:07:00,31.1,20.7,29.97,NNE,22,2.9,2.9,65,0.00,,---,0.00,VWS V14.01,2013-03-17 03:07:00,
2013-03-16 22:12:00,31.1,20.7,29.97,NNE,22,3.1,5.4,65,0.00,,---,0.00,VWS V14.01,2013-03-17 03:12:00,
2013-03-16 22:17:00,31.1,20.7,29.97,NE,45,5.4,5.4,65,0.00,,---,0.00,VWS V14.01,2013-03-17 03:17:00,
2013-03-16 22:22:00,31.1,21.1,29.97,NNE,22,2.9,6.5,66,0.00,,---,0.00,VWS V14.01,2013-03-17 03:22:00,
2013-03-16 22:27:00,31.1,21.1,29.97,NNE,22,6.0,6.0,66,0.00,,---,0.00,VWS V14.01,2013-03-17 03:27:00,
2013-03-16 22:32:00,31.1,21.1,29.94,ENE,68,3.4,6.0,66,0.00,,---,0.00,VWS V14.01,2013-03-17 03:32:00,
2013-03-16 22:37:00,31.1,21.1,29.94,ENE,68,3.8,3.8,66,0.00,,---,0.00,VWS V14.01,2013-03-17 03:37:00,
2013-03-16 22:42:00,31.1,21.1,29.94,NE,45,5.8,7.4,66,0.00,,---,0.00,VWS V14.01,2013-03-17 03:42:00,
2013-03-16 22:47:00,30.9,20.9,29.94,North,0,3.6,3.6,66,0.00,,---,0.00,VWS V14.01,2013-03-17 03:47:00,
2013-03-16 22:52:00,30.9,20.9,29.94,ENE,68,2.9,3.6,66,0.00,,---,0.00,VWS V14.01,2013-03-17 03:52:00,
2013-03-16 22:57:00,30.9,20.9,29.94,NNE,22,5.8,5.8,66,0.00,,---,0.00,VWS V14.01,2013-03-17 03:57:00,
2013-03-16 23:00:00,30.9,20.9,29.94,NE,45,4.3,4.3,66,0.00,,---,0.00,VWS V14.01,2013-03-17 04:00:00,
2013-03-16 23:05:00,30.9,20.9,29.94,NE,45,8.1,8.1,66,0.00,,---,0.00,VWS V14.01,2013-03-17 04:05:00,
2013-03-16 23:10:00,30.7,20.7,29.94,ENE,68,3.1,4.7,66,0.00,,---,0.00,VWS V14.01,2013-03-17 04:10:00,
2013-03-16 23:15:00,30.7,20.7,29.94,NNE,22,5.4,5.4,66,0.00,,---,0.00,VWS V14.01,2013-03-17 04:15:00,
2013-03-16 23:20:00,30.6,20.6,29.94,East,90,6.5,6.5,66,0.00,,---,0.00,VWS V14.01,2013-03-17 04:20:00,
2013-03-16 23:25:00,30.6,20.6,29.94,ENE,68,3.1,3.1,66,0.00,,---,0.00,VWS V14.01,2013-03-17 04:25:00,
2013-03-16 23:30:00,30.6,20.6,29.94,East,90,8.7,8.7,66,0.00,,---,0.00,VWS V14.01,2013-03-17 04:30:00,
2013-03-16 23:35:00,30.4,20.4,29.94,ENE,68,6.0,6.0,66,0.00,,---,0.00,VWS V14.01,2013-03-17 04:35:00,
2013-03-16 23:40:00,30.4,20.4,29.94,NE,45,5.8,5.8,66,0.00,,---,0.00,VWS V14.01,2013-03-17 04:40:00,
2013-03-16 23:45:00,30.4,20.4,29.94,NNE,22,3.8,3.8,66,0.00,,---,0.00,VWS V14.01,2013-03-17 04:45:00,
2013-03-16 23:50:00,30.4,20.4,29.94,ENE,68,3.6,8.5,66,0.00,,---,0.00,VWS V14.01,2013-03-17 04:50:00,
2013-03-16 23:56:00,30.2,20.6,29.94,ENE,68,7.2,7.2,67,0.00,,---,0.00,VWS V14.01,2013-03-17 04:56:00,